Portada
METAR-TAF:

METAR-TAF

Aeroports :

Holland, Michigan, Estats Units d'Amèrica

latitud: 42-44-46N, longitud: 086-05-48W, altitud: 209 m

Observació

L'informe es va fer fa 25 minuts, a les 06:53 UTC
Vent 9 kt del Oest/Nord-Oest amb ràfegues de 21 kt
Temperatura 17°C
Humitat 77%
Pressió 1013 hPa
Visibilitat: 16.1 km
Cel ennuvolat a una alçada de 2300 ft
Cel cobert a una alçada de 2900 ft

METAR: KBIV 260653Z AUTO 30009G21KT 10SM BKN023 OVC029 17/13 A2990 RMK AO2 SLP120 T01670128

Hora: 03:18 (07:18 UTC)


TAF: manca

Observacions i pronòstics meteorològics de més de 4000 aeroports (METAR i TAF).

Les estacions disponibles són els punts grocs i vermells al mapa.

Posi el ratolí al punt desitjat per veure el nom de l'estació.

Feu clic per veure les observacions i els pronòstics meteorològics.

Per canviar el mapa: feu clic els botons verds amb una creu de color negre per apropar; al botó verd amb un guió per allunyar la imatge; o en les fletxes verdes per a mapes adjacents.


METAR-TAF: